Strona główna
METAR-TAF:

METAR-TAF

Lotnisko :

Port lotniczy Rabat-Sala

Rabat, Maroko

Szerokość geograficzna: 34-03N, Długość geograficzna: 006-46W, wysokość: 84 m

Aktualna obserwacja pogody

Raport powstał 26 minut temu, godzina 03:30 UTC
Wiatr 5 kt od wschodnio-południowy wschód, zmienny między wschód i południe
Temperatura 12°C
Wilgotność 88%
Ciśnienie 1006 hPa
Widzialność: 6000 m

METAR: GMME 040330Z 12005KT 100V180 6000 NSC 12/10 Q1006 NOSIG

czas: 04:56 (03:56 UTC)

Prognoza

Raport powstał 4 godziny i 56 minut temu, godzina 23:00 UTC
Prognoza ważna od 04 godzina 00 UTC do 05 godzina 06 UTC
Wiatr 3 kt od wschodnio-południowy wschód
Widzialność: 6000 m
Prawdopodobieństwo 30% :
Przejściowo
od 04 godzina 06 UTC do 04 godzina 09 UTC
Widzialność: 4000 m
zamglenie

TAF: GMME 032300Z 0400/0506 12003KT 6000 NSC PROB30 TEMPO 0406/0409 4000 BR

Obserwacja i prognoza pogody dla ponad 4000 lotnisk (raport METAR i TAF).

Dostępne stacje oznaczono żółtymi i czerwonymi punktami na mapie.

Najedź kursorem aby zobaczyć nazwę stacji.

Kliknij aby zobaczyć obserwacje i prognozy pogody.

Aby zmienić mapę: kliknij na zielony przycisk z czarnym krzyżykiem, aby powiększyć; na zielony przycisk z myślnikiem, aby pomniejszyć; na zielone strzałki, aby przejść do map sąsiednich.


METAR-TAF: